createdAt,value
2022-11-03T00:03:27.646Z,0.20
2022-11-03T00:08:29.111Z,0.40
2022-11-03T00:13:30.599Z,0.00
2022-11-03T00:18:32.332Z,0.20
2022-11-03T00:23:35.926Z,0.20
2022-11-03T00:28:37.883Z,0.32
2022-11-03T00:33:40.996Z,0.30
2022-11-03T00:38:43.796Z,0.30
2022-11-03T00:43:45.206Z,1.55
2022-11-03T00:48:46.841Z,0.13
2022-11-03T00:53:49.213Z,0.22
2022-11-03T00:58:51.773Z,0.30
2022-11-03T01:03:55.874Z,0.30
2022-11-03T01:08:58.928Z,0.10
2022-11-03T01:14:00.594Z,0.17
2022-11-03T01:19:02.224Z,0.08
2022-11-03T01:24:05.089Z,0.30
2022-11-03T01:29:06.465Z,0.15
2022-11-03T01:34:13.733Z,0.57
2022-11-03T01:39:17.715Z,0.10
2022-11-03T01:44:19.178Z,0.30
2022-11-03T01:49:30.777Z,0.15
2022-11-03T01:54:34.466Z,0.17
2022-11-03T01:59:36.382Z,0.10
2022-11-03T02:04:38.354Z,0.10
2022-11-03T02:09:40.026Z,0.20
2022-11-03T02:14:49.154Z,0.10
2022-11-03T02:19:57.106Z,0.32
2022-11-03T02:25:04.693Z,0.47
2022-11-03T02:30:06.793Z,0.28
2022-11-03T02:35:23.418Z,0.15
2022-11-03T02:40:35.002Z,0.25
2022-11-03T02:45:38.114Z,0.73
2022-11-03T02:50:39.604Z,0.75
2022-11-03T02:56:02.994Z,0.10
2022-11-03T03:01:43.637Z,1.08
2022-11-03T03:06:54.516Z,0.10
2022-11-03T03:11:59.003Z,0.13
2022-11-03T03:17:14.158Z,0.17
2022-11-03T03:22:39.562Z,0.20
2022-11-03T03:27:45.890Z,0.30
2022-11-03T03:32:49.875Z,0.13
2022-11-03T03:37:55.626Z,0.05
2022-11-03T03:42:58.150Z,0.20
2022-11-03T03:48:00.009Z,0.40
2022-11-03T03:53:04.674Z,0.10
2022-11-03T03:58:07.546Z,0.25
2022-11-03T04:03:16.134Z,0.30
2022-11-03T04:08:17.723Z,0.10
2022-11-03T04:13:19.111Z,0.35
2022-11-03T04:18:22.010Z,0.10
2022-11-03T04:23:23.484Z,0.60
2022-11-03T04:28:25.764Z,0.10
2022-11-03T04:33:29.322Z,0.45
2022-11-03T04:38:30.757Z,0.10
2022-11-03T04:43:37.780Z,0.47
2022-11-03T04:48:39.573Z,0.10
2022-11-03T04:53:48.779Z,0.30
2022-11-03T04:58:50.689Z,0.20
2022-11-03T05:03:54.462Z,0.32
2022-11-03T05:09:05.626Z,0.40
2022-11-03T05:14:15.503Z,0.13
2022-11-03T05:19:24.468Z,0.63
2022-11-03T05:24:26.749Z,0.20
2022-11-03T05:29:37.618Z,0.52
2022-11-03T05:34:44.087Z,0.85
2022-11-03T05:39:47.713Z,0.43
2022-11-03T05:44:52.732Z,0.40
2022-11-03T05:50:00.353Z,0.30
2022-11-03T05:55:03.359Z,0.10
2022-11-03T06:00:08.068Z,0.20
2022-11-03T06:05:20.007Z,0.32
2022-11-03T06:10:26.145Z,0.40
2022-11-03T06:15:34.368Z,10.52
2022-11-03T06:20:36.561Z,2.53
2022-11-03T06:25:38.581Z,1.00
2022-11-03T06:35:44.104Z,0.70
2022-11-03T06:40:45.948Z,0.40
2022-11-03T06:45:50.617Z,0.30
2022-11-03T06:50:53.196Z,0.35
2022-11-03T06:55:55.465Z,0.35
2022-11-03T07:01:03.258Z,0.38
2022-11-03T07:06:11.156Z,0.63
2022-11-03T07:11:19.100Z,0.95
2022-11-03T07:16:35.227Z,0.60
2022-11-03T07:21:49.767Z,0.88
2022-11-03T07:26:59.852Z,0.55
2022-11-03T07:32:01.471Z,0.77
2022-11-03T07:37:03.011Z,1.13
2022-11-03T07:42:18.181Z,1.27
2022-11-03T07:47:21.841Z,1.57
2022-11-03T07:52:26.051Z,1.10
2022-11-03T07:57:31.828Z,1.08
2022-11-03T08:07:36.319Z,1.23
2022-11-03T08:12:37.768Z,1.98
2022-11-03T08:17:39.170Z,2.97
2022-11-03T08:22:46.112Z,1.58
2022-11-03T08:27:51.442Z,1.05
2022-11-03T08:32:52.916Z,1.42
2022-11-03T08:37:54.360Z,1.88
2022-11-03T08:42:55.810Z,1.65
2022-11-03T08:47:57.551Z,1.80
2022-11-03T08:52:59.043Z,2.33
2022-11-03T08:58:00.497Z,1.65
2022-11-03T09:03:02.361Z,2.17
2022-11-03T09:13:25.825Z,1.40
2022-11-03T09:18:27.337Z,1.75
2022-11-03T09:23:28.938Z,2.08
2022-11-03T09:28:30.398Z,1.67
2022-11-03T09:33:33.961Z,1.92
2022-11-03T09:38:35.392Z,1.58
2022-11-03T09:43:36.912Z,2.03
2022-11-03T09:48:39.052Z,2.25
2022-11-03T09:53:40.790Z,2.28
2022-11-03T09:58:42.304Z,2.50
2022-11-03T10:03:47.038Z,1.80
2022-11-03T10:08:49.248Z,1.92
2022-11-03T10:13:55.049Z,1.92
2022-11-03T10:18:57.666Z,1.77
2022-11-03T10:23:59.334Z,1.58
2022-11-03T10:29:03.475Z,1.95
2022-11-03T10:34:24.459Z,1.95
2022-11-03T10:39:31.815Z,1.77
2022-11-03T10:44:33.257Z,1.85
2022-11-03T10:49:39.304Z,1.30
2022-11-03T10:54:42.501Z,1.30
2022-11-03T10:59:45.764Z,2.03
2022-11-03T11:04:48.900Z,2.65
2022-11-03T11:09:50.745Z,1.48
2022-11-03T11:15:00.119Z,1.92
2022-11-03T11:44:39.933Z,2.15
2022-11-03T11:49:41.416Z,1.75
2022-11-03T11:54:43.328Z,2.40
2022-11-03T11:59:46.712Z,2.05
2022-11-03T12:04:53.657Z,2.10
2022-11-03T12:09:55.138Z,1.67
2022-11-03T12:14:56.646Z,2.22
2022-11-03T12:19:58.091Z,3.25
2022-11-03T12:25:04.032Z,2.95
2022-11-03T12:30:13.083Z,2.72
2022-11-03T12:35:15.001Z,2.60
2022-11-03T12:40:36.850Z,2.58
2022-11-03T12:45:38.350Z,2.25
2022-11-03T12:50:39.793Z,2.70
2022-11-03T12:55:44.585Z,2.53
2022-11-03T13:00:52.128Z,1.95
2022-11-03T13:05:57.184Z,2.92
2022-11-03T13:10:59.130Z,2.05
2022-11-03T13:16:00.905Z,6.57
2022-11-03T13:21:02.418Z,6.28
2022-11-03T13:26:04.026Z,2.20
2022-11-03T13:31:05.727Z,2.20
2022-11-03T13:36:07.494Z,2.72
2022-11-03T13:41:09.544Z,2.45
2022-11-03T13:46:11.179Z,1.42
2022-11-03T13:51:12.676Z,1.90
2022-11-03T13:56:20.828Z,1.20
2022-11-03T14:01:23.924Z,1.50
2022-11-03T14:06:25.623Z,1.45
2022-11-03T14:11:27.149Z,3.15
2022-11-03T14:16:28.715Z,2.45
2022-11-03T14:21:30.169Z,1.85
2022-11-03T14:26:42.313Z,1.80
2022-11-03T14:31:44.608Z,1.42
2022-11-03T14:36:46.142Z,1.80
2022-11-03T14:41:47.749Z,1.50
2022-11-03T14:46:49.223Z,2.33
2022-11-03T14:51:50.716Z,1.95
2022-11-03T14:56:52.481Z,4.95
2022-11-03T15:01:55.125Z,2.47
2022-11-03T15:06:59.410Z,1.88
2022-11-03T15:12:00.991Z,3.83
2022-11-03T15:17:02.397Z,2.83
2022-11-03T15:22:03.875Z,1.88
2022-11-03T15:27:05.303Z,2.40
2022-11-03T15:32:07.028Z,2.60
2022-11-03T15:37:08.572Z,2.75
2022-11-03T15:42:10.015Z,2.60
2022-11-03T15:47:11.457Z,2.67
2022-11-03T15:52:12.893Z,2.95
2022-11-03T16:02:40.074Z,3.30
2022-11-03T16:07:42.592Z,3.63
2022-11-03T16:12:44.068Z,3.22
2022-11-03T16:17:45.873Z,1.90
2022-11-03T16:22:47.378Z,2.38
2022-11-03T16:27:48.973Z,2.30
2022-11-03T16:32:50.418Z,2.35
2022-11-03T16:37:52.022Z,2.28
2022-11-03T16:42:53.428Z,1.40
2022-11-03T16:47:55.878Z,2.88
2022-11-03T16:52:57.374Z,2.40
2022-11-03T16:57:58.889Z,1.52
2022-11-03T17:03:00.564Z,2.15
2022-11-03T17:08:02.107Z,1.92
2022-11-03T17:13:07.693Z,2.25
2022-11-03T17:18:14.331Z,1.65
2022-11-03T17:23:15.799Z,8.18
2022-11-03T17:28:17.289Z,2.03
2022-11-03T17:33:18.821Z,2.88
2022-11-03T17:38:20.396Z,2.78
2022-11-03T17:43:28.020Z,2.75
2022-11-03T17:48:29.466Z,2.13
2022-11-03T17:53:32.613Z,2.22
2022-11-03T17:58:40.517Z,2.65
2022-11-03T18:03:44.889Z,2.33
2022-11-03T18:08:47.296Z,1.58
2022-11-03T18:13:50.065Z,1.98
2022-11-03T18:18:51.790Z,1.80
2022-11-03T18:23:53.205Z,2.63
2022-11-03T18:28:54.728Z,8.52
2022-11-03T18:33:56.809Z,2.33
2022-11-03T18:38:59.814Z,2.70
2022-11-03T18:44:02.483Z,6.78
2022-11-03T18:49:03.966Z,14.50
2022-11-03T18:54:05.777Z,8.88
2022-11-03T18:59:35.578Z,3.80
2022-11-03T19:04:37.014Z,6.90
2022-11-03T19:09:38.741Z,3.00
2022-11-03T19:14:42.286Z,2.28
2022-11-03T19:19:44.891Z,3.00
2022-11-03T19:24:46.380Z,1.75
2022-11-03T19:29:48.606Z,1.92
2022-11-03T19:34:58.279Z,1.80
2022-11-03T19:39:59.895Z,2.40
2022-11-03T19:45:06.490Z,1.15
2022-11-03T19:50:14.686Z,1.55
2022-11-03T19:55:18.145Z,1.73
2022-11-03T20:00:19.614Z,0.68
2022-11-03T20:05:21.030Z,1.67
2022-11-03T20:10:22.500Z,1.25
2022-11-03T20:15:23.916Z,1.05
2022-11-03T20:20:29.121Z,0.90
2022-11-03T20:25:34.049Z,1.08
2022-11-03T20:30:35.481Z,1.37
2022-11-03T20:35:37.068Z,1.23
2022-11-03T20:40:40.424Z,1.60
2022-11-03T20:45:41.851Z,1.30
2022-11-03T20:50:43.604Z,1.38
2022-11-03T20:55:45.321Z,1.40
2022-11-03T21:00:48.236Z,2.03
2022-11-03T21:05:49.997Z,1.25
2022-11-03T21:10:52.304Z,0.82
2022-11-03T21:16:22.608Z,1.83
2022-11-03T21:21:20.814Z,1.63
2022-11-03T21:26:22.748Z,0.90
2022-11-03T21:31:24.196Z,0.52
2022-11-03T21:36:25.679Z,1.52
2022-11-03T21:41:27.093Z,1.23
2022-11-03T21:46:28.493Z,1.08
2022-11-03T21:51:29.948Z,0.60
2022-11-03T21:56:31.424Z,0.40
2022-11-03T22:01:32.875Z,0.60
2022-11-03T22:06:34.457Z,0.70
2022-11-03T22:11:35.941Z,1.15
2022-11-03T22:16:37.435Z,0.35
2022-11-03T22:21:39.175Z,0.68
2022-11-03T22:26:40.579Z,0.68
2022-11-03T22:31:42.036Z,0.63
2022-11-03T22:36:43.490Z,0.70
2022-11-03T22:41:44.935Z,0.50
2022-11-03T22:46:46.355Z,0.25
2022-11-03T22:51:47.770Z,0.20
2022-11-03T22:56:49.266Z,0.20
2022-11-03T23:01:50.780Z,0.10
2022-11-03T23:06:52.454Z,0.20
2022-11-03T23:11:53.861Z,0.00
2022-11-03T23:16:55.231Z,0.10
2022-11-03T23:21:56.807Z,0.08
2022-11-03T23:26:58.485Z,0.20
2022-11-03T23:32:01.142Z,0.35
2022-11-03T23:37:03.075Z,0.10
2022-11-03T23:42:04.696Z,0.10
2022-11-03T23:47:08.048Z,0.00
2022-11-03T23:52:09.500Z,0.10
2022-11-03T23:57:10.994Z,0.30
